Cape Canaveral AFS Skid Strip Cocoa Beach US
ICAO: KXMR
IATA: XMR
Category: Medium
Scheduled Services: No

Elevation: 10 ft
TransAlt. 18000 ft.

Airport Communications:
ORLANDO APP/DEP:134.95
PMSV METRO:344.6
CAPE TWR:118.625
:239.05

KXMR Zoom In..

If you have problems with the map follow the link
https://www.worldairports.se/pages/airport.php?
ICAO=KXMR

Runways:

(A) RW 13 length 10000 ft width 200 ft
---- / hdg 131

(B) RW 31 length 10000 ft width 200 ft
---- / hdg 311

Location; KXMR
Day. 14 / Time. 10.56 Zulu
* Altimeter: 30.06
* Temperature: 24° c. 75.2°f.
* Wind from: 330° Speed 04 kn.
Dewpoint: 22° c.
Visibility: 10 Statute Miles.
Clouds: Clear (automated report).

KXMR 141056Z AUTO 33004KT 10SM CLR 24/22 A3006 RMK AO2 SLP182 T02380218 $


Wind From 330°
Speed 04 kn.

 
 
jpsmedia.com for Web Design worldairports.se 2018   terms of use